Bookmark and Share
Track history (hours):
 

Stephen L.

More information available from US FCC via Universal Licensing System and Coast Guard Vessel Documentation Center.

Last reported at 2014-Apr-22 04:31 UTC. Time now 2014-Apr-23 09:34 UTC.
Position N 29°34' W 090°45'.

Length 20 m.

Type: Ship. MMSI: 367388580.

NotesDate/timePositionNaut miles runAvg speedWind from/ knotsBaromVisibWave heightAir tempDewpointWater temp
2014-Apr-22 04:31N 29°34' W 090°45'11 5.3
2014-Apr-22 02:30N 29°34' W 090°57'5 5.7
2014-Apr-22 01:33N 29°37' W 091°02'5 5.2
2014-Apr-22 00:33N 29°40' W 091°08'4 4.1
2014-Apr-21 23:33N 29°41' W 091°12'5 5.2
2014-Apr-21 22:33N 29°39' W 091°17'5 5.4
2014-Apr-21 21:34N 29°39' W 091°24'  
2014-Apr-17 12:29N 29°45' W 091°34'6 5.6
2014-Apr-17 11:23N 29°41' W 091°29'4 4.9
2014-Apr-17 10:33N 29°39' W 091°25'4 4.3
2014-Apr-17 09:33N 29°38' W 091°20'7 6.7
2014-Apr-17 08:33N 29°41' W 091°13'2 2.3
2014-Apr-17 07:33N 29°43' W 091°12'0 0.0
2014-Apr-17 06:33N 29°43' W 091°12'2 1.7
2014-Apr-17 05:33N 29°45' W 091°11'5 4.9
2014-Apr-17 04:33N 29°50' W 091°11'21 0.4
2014-Apr-15 03:33N 30°01' W 090°50'5 2.3
2014-Apr-15 01:33N 30°01' W 090°45'4 4.5
2014-Apr-15 00:34N 30°03' W 090°40'5 5.4
2014-Apr-14 23:34N 30°03' W 090°34'5 5.0
2014-Apr-14 22:34N 30°01' W 090°28'4 4.2
2014-Apr-14 21:33N 29°59' W 090°24'  

Dump ship's entire track history

sailing weather and tide predictions

Stephen L. — WDE7070 — position and weather